Hobby, TX

7:49 AM CDT on September 02, 2015 (GMT -0500)
Hobby | | Change Station
CLOSE
Current Station
Airport
Location: Houston,
Elevation: 46 ft
Nearby Weather Stations

Elev 46 ft 29.64 °N, 95.28 °W | Updated 56 minutes ago

Mostly Cloudy
Mostly Cloudy
73 °F
Feels Like 73 °F
N
6
Wind Variable Wind from South

Today
High -- | Low -- °F
--% Chance of Precip.
Yesterday
High -- | Low -- °F
Precip. -- in
6:58 AM 7:42 PM
Waning Gibbous, 80% visible
Pressure 30.05 in
Visibility 10.0 miles
Clouds Few 5500 ft
Mostly Cloudy 7000 ft
Mostly Cloudy 9000 ft
Dew Point 71 °F
Humidity 93%
Rainfall 0.86 in
Snow Depth Not available.
UV 0 out of 12
Pollen 5.70 out of 12
Air Quality Not available.
Flu Activity Not available.
METAR KHOU 021153Z 19005KT 10SM FEW055 BKN070 BKN090 23/22 A3003 RMK AO2 TSE1055RAE42 SLP175 TS MOVD NW P0009 60052 70076 T02280217 10250 20222 51010
Pressure 30.05 in
Visibility 10.0 miles
Clouds Few 5500 ft
Mostly Cloudy 7000 ft
Mostly Cloudy 9000 ft
Dew Point 71 °F
Humidity 93%
Rainfall 0.86 in
Snow Depth Not available.
UV 0 out of 12
Pollen 5.70 out of 12
Air Quality Not available.
Flu Activity Not available.
METAR KHOU 021153Z 19005KT 10SM FEW055 BKN070 BKN090 23/22 A3003 RMK AO2 TSE1055RAE42 SLP175 TS MOVD NW P0009 60052 70076 T02280217 10250 20222 51010

10-Day Weather Forecast

×

Almanac

Astronomy

Sep. 02, 2015 Rise Set
Actual Time
Civil Twilight
Nautical Twilight
Astronomical Twilight
Moon
Length of Visible Light
Length of Day
Tomorrow will be .
, % of the Moon is Illuminated

Today's Extremes

State Highs State Lows

Community

WunderPhotos

Upload Photos

1,851,738 photos uploaded!

WunderBlogs® & News

Nearby

Air Quality

  Air Quality AQ Index Pollutant
Not available.

Snow Depth

Station Depth Elevation

Earthquake Activity

City Distance Mag. Time & Date
Minimum magnitude displayed is 2.5.

Coastal Water Temperatures

Place Temperature

Stations

Nearby Weather Stations

Station Location Temp. Windchill Dew Point Humidity Wind Precip. Elev Updated Type